sensor_id;sensor_type;location;lat;lon;timestamp;pressure;altitude;pressure_sealevel;temperature;humidity
4972;BME280;2501;51.214;6.768;2023-04-28T00:02:26;101019.34;;;11.39;60.76
4972;BME280;2501;51.214;6.768;2023-04-28T00:04:54;101008.06;;;11.56;61.06
4972;BME280;2501;51.214;6.768;2023-04-28T00:07:22;101007.94;;;11.36;62.74
4972;BME280;2501;51.214;6.768;2023-04-28T00:09:51;101013.09;;;11.21;62.51
4972;BME280;2501;51.214;6.768;2023-04-28T00:12:21;101002.47;;;11.08;62.82
4972;BME280;2501;51.214;6.768;2023-04-28T00:14:52;100998.09;;;11.04;63.57
4972;BME280;2501;51.214;6.768;2023-04-28T00:17:20;100986.72;;;11.04;65.06
4972;BME280;2501;51.214;6.768;2023-04-28T00:19:49;100996.28;;;10.99;66.05
4972;BME280;2501;51.214;6.768;2023-04-28T00:22:17;100991.94;;;11.01;65.83
4972;BME280;2501;51.214;6.768;2023-04-28T00:24:46;100984.97;;;11.09;66.44
4972;BME280;2501;51.214;6.768;2023-04-28T00:27:14;100972.97;;;11.41;64.24
4972;BME280;2501;51.214;6.768;2023-04-28T00:29:43;100978.84;;;11.04;67.25
4972;BME280;2501;51.214;6.768;2023-04-28T00:32:14;100981.59;;;11.21;67.05
4972;BME280;2501;51.214;6.768;2023-04-28T00:34:42;100971.00;;;11.07;67.92
4972;BME280;2501;51.214;6.768;2023-04-28T00:37:11;100979.72;;;11.09;68.18
4972;BME280;2501;51.214;6.768;2023-04-28T00:39:39;100974.56;;;11.16;68.94
4972;BME280;2501;51.214;6.768;2023-04-28T00:42:11;100970.66;;;12.01;66.75
4972;BME280;2501;51.214;6.768;2023-04-28T00:44:39;100965.47;;;12.31;63.62
4972;BME280;2501;51.214;6.768;2023-04-28T00:47:08;100962.78;;;12.04;65.89
4972;BME280;2501;51.214;6.768;2023-04-28T00:49:39;100963.63;;;11.98;66.21
4972;BME280;2501;51.214;6.768;2023-04-28T00:52:08;100960.97;;;11.88;66.94
4972;BME280;2501;51.214;6.768;2023-04-28T00:54:37;100955.72;;;11.91;67.97
4972;BME280;2501;51.214;6.768;2023-04-28T00:57:06;100957.34;;;11.67;68.57
4972;BME280;2501;51.214;6.768;2023-04-28T00:59:35;100958.97;;;11.39;71.23
4972;BME280;2501;51.214;6.768;2023-04-28T01:02:04;100955.69;;;11.83;70.11
4972;BME280;2501;51.214;6.768;2023-04-28T01:04:34;100960.75;;;11.49;70.07
4972;BME280;2501;51.214;6.768;2023-04-28T01:07:05;100958.03;;;11.31;71.93
4972;BME280;2501;51.214;6.768;2023-04-28T01:09:34;100948.44;;;11.36;71.00
4972;BME280;2501;51.214;6.768;2023-04-28T01:12:02;100951.72;;;11.03;74.27
4972;BME280;2501;51.214;6.768;2023-04-28T01:14:32;100950.53;;;10.66;78.81
4972;BME280;2501;51.214;6.768;2023-04-28T01:17:00;100948.63;;;10.47;80.32
4972;BME280;2501;51.214;6.768;2023-04-28T01:19:29;100946.81;;;10.43;82.01
4972;BME280;2501;51.214;6.768;2023-04-28T01:21:57;100953.78;;;10.39;81.93
4972;BME280;2501;51.214;6.768;2023-04-28T01:24:28;100953.09;;;10.59;82.38
4972;BME280;2501;51.214;6.768;2023-04-28T01:26:57;100955.56;;;10.43;82.46
4972;BME280;2501;51.214;6.768;2023-04-28T01:29:26;100956.41;;;10.36;83.54
4972;BME280;2501;51.214;6.768;2023-04-28T01:31:54;100952.00;;;10.35;83.19
4972;BME280;2501;51.214;6.768;2023-04-28T01:34:22;100958.16;;;10.39;83.76
4972;BME280;2501;51.214;6.768;2023-04-28T01:36:51;100953.78;;;10.39;84.20
4972;BME280;2501;51.214;6.768;2023-04-28T01:39:19;100945.03;;;10.37;84.29
4972;BME280;2501;51.214;6.768;2023-04-28T01:41:50;100949.38;;;10.34;84.93
4972;BME280;2501;51.214;6.768;2023-04-28T01:44:18;100945.03;;;10.40;84.97
4972;BME280;2501;51.214;6.768;2023-04-28T01:46:47;100945.03;;;10.37;85.80
4972;BME280;2501;51.214;6.768;2023-04-28T01:49:15;100950.16;;;10.27;86.88
4972;BME280;2501;51.214;6.768;2023-04-28T01:51:44;100949.25;;;10.23;87.32
4972;BME280;2501;51.214;6.768;2023-04-28T01:54:12;100947.47;;;10.22;87.36
4972;BME280;2501;51.214;6.768;2023-04-28T01:56:41;100948.38;;;10.23;87.71
4972;BME280;2501;51.214;6.768;2023-04-28T01:59:12;100938.75;;;10.22;87.71
4972;BME280;2501;51.214;6.768;2023-04-28T02:01:40;100924.78;;;10.24;88.90
4972;BME280;2501;51.214;6.768;2023-04-28T02:04:09;100926.47;;;10.18;88.52
4972;BME280;2501;51.214;6.768;2023-04-28T02:06:37;100928.25;;;10.22;88.48
4972;BME280;2501;51.214;6.768;2023-04-28T02:09:06;100930.09;;;10.30;89.60
4972;BME280;2501;51.214;6.768;2023-04-28T02:11:34;100929.25;;;10.31;90.59
4972;BME280;2501;51.214;6.768;2023-04-28T02:14:03;100928.25;;;10.19;90.13
4972;BME280;2501;51.214;6.768;2023-04-28T02:16:34;100922.22;;;10.29;90.67
4972;BME280;2501;51.214;6.768;2023-04-28T02:19:02;100915.06;;;10.14;89.84
4972;BME280;2501;51.214;6.768;2023-04-28T02:21:31;100918.56;;;10.15;90.56
4972;BME280;2501;51.214;6.768;2023-04-28T02:23:59;100909.91;;;10.22;90.99
4972;BME280;2501;51.214;6.768;2023-04-28T02:26:28;100920.63;;;10.46;90.87
4972;BME280;2501;51.214;6.768;2023-04-28T02:28:56;100918.06;;;10.51;91.36
4972;BME280;2501;51.214;6.768;2023-04-28T02:31:25;100919.47;;;10.18;91.43
4972;BME280;2501;51.214;6.768;2023-04-28T02:33:56;100937.00;;;10.24;92.41
4972;BME280;2501;51.214;6.768;2023-04-28T02:36:24;100925.88;;;10.44;92.04
4972;BME280;2501;51.214;6.768;2023-04-28T02:38:53;100923.13;;;10.32;90.39
4972;BME280;2501;51.214;6.768;2023-04-28T02:41:22;100929.16;;;10.21;91.00
4972;BME280;2501;51.214;6.768;2023-04-28T02:43:50;100924.94;;;10.36;91.25
4972;BME280;2501;51.214;6.768;2023-04-28T02:46:19;100923.91;;;10.24;91.75
4972;BME280;2501;51.214;6.768;2023-04-28T02:48:47;100920.34;;;10.17;91.96
4972;BME280;2501;51.214;6.768;2023-04-28T02:51:18;100916.19;;;10.40;91.21
4972;BME280;2501;51.214;6.768;2023-04-28T02:53:47;100911.69;;;10.26;90.51
4972;BME280;2501;51.214;6.768;2023-04-28T02:56:15;100913.47;;;10.27;91.81
4972;BME280;2501;51.214;6.768;2023-04-28T02:58:44;100916.91;;;10.21;91.44
4972;BME280;2501;51.214;6.768;2023-04-28T03:01:12;100914.38;;;10.30;92.47
4972;BME280;2501;51.214;6.768;2023-04-28T03:03:41;100902.81;;;10.13;92.33
4972;BME280;2501;51.214;6.768;2023-04-28T03:06:09;100903.91;;;10.32;91.92
4972;BME280;2501;51.214;6.768;2023-04-28T03:08:40;100905.34;;;10.05;93.08
4972;BME280;2501;51.214;6.768;2023-04-28T03:11:09;100902.75;;;10.08;93.91
4972;BME280;2501;51.214;6.768;2023-04-28T03:13:37;100901.84;;;10.02;94.20
4972;BME280;2501;51.214;6.768;2023-04-28T03:16:06;100895.16;;;10.31;93.59
4972;BME280;2501;51.214;6.768;2023-04-28T03:18:35;100890.72;;;10.26;93.75
4972;BME280;2501;51.214;6.768;2023-04-28T03:21:03;100890.63;;;10.17;93.67
4972;BME280;2501;51.214;6.768;2023-04-28T03:23:31;100892.25;;;10.04;93.95
4972;BME280;2501;51.214;6.768;2023-04-28T03:26:02;100888.63;;;9.93;94.57
4972;BME280;2501;51.214;6.768;2023-04-28T03:28:31;100884.44;;;10.10;94.76
4972;BME280;2501;51.214;6.768;2023-04-28T03:31:00;100883.50;;;10.06;94.13
4972;BME280;2501;51.214;6.768;2023-04-28T03:33:28;100879.03;;;9.93;95.07
4972;BME280;2501;51.214;6.768;2023-04-28T03:35:56;100865.84;;;9.86;95.81
4972;BME280;2501;51.214;6.768;2023-04-28T03:38:25;100854.31;;;9.70;96.29
4972;BME280;2501;51.214;6.768;2023-04-28T03:40:53;100863.13;;;9.76;96.56
4972;BME280;2501;51.214;6.768;2023-04-28T03:43:25;100850.94;;;9.78;97.32
4972;BME280;2501;51.214;6.768;2023-04-28T03:45:53;100849.81;;;9.58;98.09
4972;BME280;2501;51.214;6.768;2023-04-28T03:48:21;100848.03;;;9.54;98.62
4972;BME280;2501;51.214;6.768;2023-04-28T03:50:50;100845.41;;;9.51;98.58
4972;BME280;2501;51.214;6.768;2023-04-28T03:53:18;100838.44;;;9.56;98.84
4972;BME280;2501;51.214;6.768;2023-04-28T03:55:47;100817.56;;;9.61;98.96
4972;BME280;2501;51.214;6.768;2023-04-28T03:58:15;100814.84;;;9.52;98.99
4972;BME280;2501;51.214;6.768;2023-04-28T04:00:46;100807.88;;;9.55;98.94
4972;BME280;2501;51.214;6.768;2023-04-28T04:03:15;100813.97;;;9.54;98.75
4972;BME280;2501;51.214;6.768;2023-04-28T04:05:46;100813.16;;;9.57;98.55
4972;BME280;2501;51.214;6.768;2023-04-28T04:08:14;100799.25;;;9.62;98.08
4972;BME280;2501;51.214;6.768;2023-04-28T04:10:45;100804.47;;;9.61;98.08
4972;BME280;2501;51.214;6.768;2023-04-28T04:13:13;100805.38;;;9.64;98.17
4972;BME280;2501;51.214;6.768;2023-04-28T04:15:41;100792.34;;;9.72;97.89
4972;BME280;2501;51.214;6.768;2023-04-28T04:18:13;100784.47;;;9.70;97.52
4972;BME280;2501;51.214;6.768;2023-04-28T04:20:41;100795.19;;;9.95;96.75
4972;BME280;2501;51.214;6.768;2023-04-28T04:23:09;100802.91;;;9.80;97.20
4972;BME280;2501;51.214;6.768;2023-04-28T04:25:38;100795.03;;;9.76;97.37
4972;BME280;2501;51.214;6.768;2023-04-28T04:28:07;100811.63;;;9.78;97.36
4972;BME280;2501;51.214;6.768;2023-04-28T04:30:35;100815.91;;;9.70;97.37
4972;BME280;2501;51.214;6.768;2023-04-28T04:33:04;100815.19;;;9.84;96.69
4972;BME280;2501;51.214;6.768;2023-04-28T04:35:35;100814.19;;;9.72;97.14
4972;BME280;2501;51.214;6.768;2023-04-28T04:38:03;100814.25;;;9.77;97.51
4972;BME280;2501;51.214;6.768;2023-04-28T04:40:32;100805.59;;;9.86;97.43
4972;BME280;2501;51.214;6.768;2023-04-28T04:43:01;100805.56;;;9.81;97.33
4972;BME280;2501;51.214;6.768;2023-04-28T04:45:29;100790.72;;;9.83;97.22
4972;BME280;2501;51.214;6.768;2023-04-28T04:47:58;100785.44;;;9.77;97.51
4972;BME280;2501;51.214;6.768;2023-04-28T04:50:26;100785.38;;;9.74;97.44
4972;BME280;2501;51.214;6.768;2023-04-28T04:52:57;100793.34;;;9.82;97.52
4972;BME280;2501;51.214;6.768;2023-04-28T04:55:26;100799.56;;;9.96;96.87
4972;BME280;2501;51.214;6.768;2023-04-28T04:57:55;100795.19;;;9.95;97.00
4972;BME280;2501;51.214;6.768;2023-04-28T05:00:23;100796.06;;;9.95;97.43
4972;BME280;2501;51.214;6.768;2023-04-28T05:02:52;100799.66;;;10.03;97.24
4972;BME280;2501;51.214;6.768;2023-04-28T05:05:20;100802.25;;;10.02;97.06
4972;BME280;2501;51.214;6.768;2023-04-28T05:07:48;100813.66;;;10.08;97.44
4972;BME280;2501;51.214;6.768;2023-04-28T05:10:20;100813.72;;;10.15;97.20
4972;BME280;2501;51.214;6.768;2023-04-28T05:12:48;100819.91;;;10.23;97.41
4972;BME280;2501;51.214;6.768;2023-04-28T05:15:17;100807.69;;;10.20;96.55
4972;BME280;2501;51.214;6.768;2023-04-28T05:17:45;100798.88;;;10.15;96.52
4972;BME280;2501;51.214;6.768;2023-04-28T05:20:14;100801.47;;;10.12;96.25
4972;BME280;2501;51.214;6.768;2023-04-28T05:22:42;100796.22;;;10.10;96.29
4972;BME280;2501;51.214;6.768;2023-04-28T05:28:24;100786.03;;;10.47;95.69
4972;BME280;2501;51.214;6.768;2023-04-28T05:30:53;100791.22;;;10.41;94.92
4972;BME280;2501;51.214;6.768;2023-04-28T05:33:21;100790.38;;;10.39;95.36
4972;BME280;2501;51.214;6.768;2023-04-28T05:35:51;100791.22;;;10.39;95.38
4972;BME280;2501;51.214;6.768;2023-04-28T05:38:20;100790.44;;;10.51;95.30
4972;BME280;2501;51.214;6.768;2023-04-28T05:40:48;100786.16;;;10.64;95.46
4972;BME280;2501;51.214;6.768;2023-04-28T05:43:17;100777.41;;;10.63;95.28
4972;BME280;2501;51.214;6.768;2023-04-28T05:45:48;100778.28;;;10.64;93.98
4972;BME280;2501;51.214;6.768;2023-04-28T05:48:17;100778.22;;;10.53;93.18
4972;BME280;2501;51.214;6.768;2023-04-28T05:50:46;100783.59;;;10.73;92.62
4972;BME280;2501;51.214;6.768;2023-04-28T05:53:14;100770.41;;;10.64;92.27
4972;BME280;2501;51.214;6.768;2023-04-28T05:55:43;100766.06;;;10.67;92.16
4972;BME280;2501;51.214;6.768;2023-04-28T05:58:11;100770.53;;;10.84;91.67
4972;BME280;2501;51.214;6.768;2023-04-28T06:00:43;100765.28;;;10.85;91.30
4972;BME280;2501;51.214;6.768;2023-04-28T06:03:16;100760.97;;;10.99;91.19
4972;BME280;2501;51.214;6.768;2023-04-28T06:05:43;100757.44;;;10.93;90.82
4972;BME280;2501;51.214;6.768;2023-04-28T06:08:15;100756.66;;;11.07;90.18
4972;BME280;2501;51.214;6.768;2023-04-28T06:10:45;100747.00;;;11.09;89.91
4972;BME280;2501;51.214;6.768;2023-04-28T06:13:18;100750.44;;;10.96;89.97
4972;BME280;2501;51.214;6.768;2023-04-28T06:15:44;100757.47;;;10.97;89.96
4972;BME280;2501;51.214;6.768;2023-04-28T06:18:17;100756.69;;;11.29;89.85
4972;BME280;2501;51.214;6.768;2023-04-28T06:36:34;100760.19;;;11.19;90.06
4972;BME280;2501;51.214;6.768;2023-04-28T06:39:03;100766.25;;;11.08;90.02
4972;BME280;2501;51.214;6.768;2023-04-28T06:41:31;100766.31;;;11.21;90.29
4972;BME280;2501;51.214;6.768;2023-04-28T06:44:00;100768.00;;;11.06;90.25
4972;BME280;2501;51.214;6.768;2023-04-28T06:46:29;100761.03;;;11.14;90.70
4972;BME280;2501;51.214;6.768;2023-04-28T06:48:58;100747.97;;;11.34;90.78
4972;BME280;2501;51.214;6.768;2023-04-28T06:51:27;100747.97;;;11.36;90.13
4972;BME280;2501;51.214;6.768;2023-04-28T06:53:59;100754.97;;;11.37;89.15
4972;BME280;2501;51.214;6.768;2023-04-28T06:56:28;100754.00;;;11.12;89.84
4972;BME280;2501;51.214;6.768;2023-04-28T06:58:56;100754.94;;;11.22;90.74
4972;BME280;2501;51.214;6.768;2023-04-28T07:01:25;100764.59;;;11.35;90.85
4972;BME280;2501;51.214;6.768;2023-04-28T07:03:54;100763.69;;;11.22;90.64
4972;BME280;2501;51.214;6.768;2023-04-28T07:06:22;100762.88;;;11.41;90.64
4972;BME280;2501;51.214;6.768;2023-04-28T07:08:51;100773.31;;;11.29;90.58
4972;BME280;2501;51.214;6.768;2023-04-28T07:11:23;100768.13;;;11.49;90.65
4972;BME280;2501;51.214;6.768;2023-04-28T07:13:51;100759.38;;;11.50;90.35
4972;BME280;2501;51.214;6.768;2023-04-28T07:16:20;100763.75;;;11.51;90.41
4972;BME280;2501;51.214;6.768;2023-04-28T07:18:48;100761.16;;;11.62;90.08
4972;BME280;2501;51.214;6.768;2023-04-28T07:21:17;100757.66;;;11.58;90.12
4972;BME280;2501;51.214;6.768;2023-04-28T07:23:46;100757.66;;;11.52;90.64
4972;BME280;2501;51.214;6.768;2023-04-28T07:26:14;100759.41;;;11.68;90.49
4972;BME280;2501;51.214;6.768;2023-04-28T07:28:46;100756.00;;;11.94;89.65
4972;BME280;2501;51.214;6.768;2023-04-28T07:31:15;100755.09;;;12.07;88.60
4972;BME280;2501;51.214;6.768;2023-04-28T07:33:43;100752.47;;;12.01;88.38
4972;BME280;2501;51.214;6.768;2023-04-28T07:36:12;100762.09;;;11.96;88.73
4972;BME280;2501;51.214;6.768;2023-04-28T07:38:40;100771.75;;;12.03;88.95
4972;BME280;2501;51.214;6.768;2023-04-28T07:41:09;100770.84;;;11.78;89.79
4972;BME280;2501;51.214;6.768;2023-04-28T07:43:38;100769.94;;;11.70;90.69
4972;BME280;2501;51.214;6.768;2023-04-28T07:46:09;100770.00;;;11.91;90.17
4972;BME280;2501;51.214;6.768;2023-04-28T07:48:37;100770.00;;;12.08;90.26
4972;BME280;2501;51.214;6.768;2023-04-28T07:51:06;100770.88;;;12.04;91.02
4972;BME280;2501;51.214;6.768;2023-04-28T07:53:35;100771.75;;;12.00;92.42
4972;BME280;2501;51.214;6.768;2023-04-28T07:56:04;100764.75;;;11.88;93.24
4972;BME280;2501;51.214;6.768;2023-04-28T07:58:32;100759.47;;;12.35;93.13
4972;BME280;2501;51.214;6.768;2023-04-28T08:01:01;100767.31;;;11.74;92.53
4972;BME280;2501;51.214;6.768;2023-04-28T08:03:32;100760.34;;;11.89;93.41
4972;BME280;2501;51.214;6.768;2023-04-28T08:06:00;100747.22;;;11.98;92.94
4972;BME280;2501;51.214;6.768;2023-04-28T08:08:29;100752.44;;;12.39;91.69
4972;BME280;2501;51.214;6.768;2023-04-28T08:10:58;100753.28;;;12.50;90.31
4972;BME280;2501;51.214;6.768;2023-04-28T08:13:26;100748.94;;;12.34;90.55
4972;BME280;2501;51.214;6.768;2023-04-28T08:15:55;100746.31;;;12.37;91.11
4972;BME280;2501;51.214;6.768;2023-04-28T08:18:25;100749.81;;;12.30;91.30
4972;BME280;2501;51.214;6.768;2023-04-28T08:20:56;100745.47;;;12.23;90.86
4972;BME280;2501;51.214;6.768;2023-04-28T08:23:25;100747.16;;;12.51;90.78
4972;BME280;2501;51.214;6.768;2023-04-28T08:25:56;100748.91;;;12.63;89.91
4972;BME280;2501;51.214;6.768;2023-04-28T08:28:25;100753.13;;;13.15;88.04
4972;BME280;2501;51.214;6.768;2023-04-28T08:30:54;100755.63;;;13.35;85.46
4972;BME280;2501;51.214;6.768;2023-04-28T08:33:23;100751.31;;;13.22;86.12
4972;BME280;2501;51.214;6.768;2023-04-28T08:35:51;100755.00;;;12.77;87.20
4972;BME280;2501;51.214;6.768;2023-04-28T08:38:22;100756.75;;;12.79;87.52
4972;BME280;2501;51.214;6.768;2023-04-28T08:40:51;100750.56;;;12.91;87.27
4972;BME280;2501;51.214;6.768;2023-04-28T08:43:19;100759.25;;;13.17;86.77
4972;BME280;2501;51.214;6.768;2023-04-28T08:45:48;100764.53;;;13.05;85.96
4972;BME280;2501;51.214;6.768;2023-04-28T08:48:18;100762.84;;;12.81;86.65
4972;BME280;2501;51.214;6.768;2023-04-28T08:50:49;100768.09;;;12.87;87.38
4972;BME280;2501;51.214;6.768;2023-04-28T08:53:24;100774.38;;;12.35;89.13
4972;BME280;2501;51.214;6.768;2023-04-28T08:55:54;100769.06;;;12.59;90.04
4972;BME280;2501;51.214;6.768;2023-04-28T08:58:24;100765.53;;;12.66;90.28
4972;BME280;2501;51.214;6.768;2023-04-28T09:00:53;100768.97;;;12.97;89.46
4972;BME280;2501;51.214;6.768;2023-04-28T09:03:22;100768.94;;;13.00;88.93
4972;BME280;2501;51.214;6.768;2023-04-28T09:05:51;100771.63;;;12.85;88.93
4972;BME280;2501;51.214;6.768;2023-04-28T09:08:19;100766.38;;;12.82;89.46
4972;BME280;2501;51.214;6.768;2023-04-28T09:11:04;100758.41;;;13.02;88.60
4972;BME280;2501;51.214;6.768;2023-04-28T09:13:35;100765.38;;;13.16;88.30
4972;BME280;2501;51.214;6.768;2023-04-28T09:16:05;100763.66;;;13.09;87.60
4972;BME280;2501;51.214;6.768;2023-04-28T09:18:33;100758.34;;;13.24;87.25
4972;BME280;2501;51.214;6.768;2023-04-28T09:21:03;100755.72;;;13.21;87.16
4972;BME280;2501;51.214;6.768;2023-04-28T09:23:31;100754.81;;;13.30;87.61
4972;BME280;2501;51.214;6.768;2023-04-28T09:26:05;100752.19;;;13.27;88.13
4972;BME280;2501;51.214;6.768;2023-04-28T09:28:34;100746.94;;;13.26;88.62
4972;BME280;2501;51.214;6.768;2023-04-28T09:31:03;100750.38;;;13.34;89.11
4972;BME280;2501;51.214;6.768;2023-04-28T09:33:32;100755.72;;;13.18;89.61
4972;BME280;2501;51.214;6.768;2023-04-28T09:36:01;100752.19;;;13.26;90.47
4972;BME280;2501;51.214;6.768;2023-04-28T09:38:29;100754.72;;;13.47;90.24
4972;BME280;2501;51.214;6.768;2023-04-28T09:40:59;100748.56;;;13.46;90.19
4972;BME280;2501;51.214;6.768;2023-04-28T09:43:32;100750.22;;;13.64;90.16
4972;BME280;2501;51.214;6.768;2023-04-28T09:46:02;100752.78;;;13.69;90.19
4972;BME280;2501;51.214;6.768;2023-04-28T09:48:32;100753.75;;;13.57;90.89
4972;BME280;2501;51.214;6.768;2023-04-28T09:51:02;100754.72;;;13.45;91.69
4972;BME280;2501;51.214;6.768;2023-04-28T09:53:31;100755.59;;;13.44;92.22
4972;BME280;2501;51.214;6.768;2023-04-28T09:56:01;100749.44;;;13.50;92.23
4972;BME280;2501;51.214;6.768;2023-04-28T09:58:33;100754.84;;;13.21;93.86
4972;BME280;2501;51.214;6.768;2023-04-28T10:01:08;100746.97;;;13.09;95.45
4972;BME280;2501;51.214;6.768;2023-04-28T10:03:38;100748.72;;;13.13;96.20
4972;BME280;2501;51.214;6.768;2023-04-28T10:06:07;100761.06;;;12.97;97.08
4972;BME280;2501;51.214;6.768;2023-04-28T10:08:35;100760.22;;;12.83;98.47
4972;BME280;2501;51.214;6.768;2023-04-28T10:11:04;100754.00;;;13.01;99.16
4972;BME280;2501;51.214;6.768;2023-04-28T10:13:37;100747.00;;;13.15;98.90
4972;BME280;2501;51.214;6.768;2023-04-28T10:16:07;100754.88;;;13.07;98.52
4972;BME280;2501;51.214;6.768;2023-04-28T10:18:36;100752.22;;;13.13;98.15
4972;BME280;2501;51.214;6.768;2023-04-28T10:21:05;100741.75;;;12.98;99.02
4972;BME280;2501;51.214;6.768;2023-04-28T10:23:59;100746.94;;;13.18;99.05
4972;BME280;2501;51.214;6.768;2023-04-28T10:27:04;100755.63;;;13.41;99.53
4972;BME280;2501;51.214;6.768;2023-04-28T10:29:36;100752.19;;;13.30;100.00
4972;BME280;2501;51.214;6.768;2023-04-28T10:32:15;100757.41;;;13.36;100.00
4972;BME280;2501;51.214;6.768;2023-04-28T10:34:44;100753.06;;;13.31;100.00
4972;BME280;2501;51.214;6.768;2023-04-28T10:37:13;100749.53;;;13.33;100.00
4972;BME280;2501;51.214;6.768;2023-04-28T10:42:54;100754.75;;;13.38;100.00
4972;BME280;2501;51.214;6.768;2023-04-28T10:46:08;100748.56;;;13.49;100.00
4972;BME280;2501;51.214;6.768;2023-04-28T10:48:56;100743.25;;;13.51;100.00
4972;BME280;2501;51.214;6.768;2023-04-28T10:51:30;100745.88;;;13.52;100.00
4972;BME280;2501;51.214;6.768;2023-04-28T10:54:16;100738.03;;;13.49;100.00
4972;BME280;2501;51.214;6.768;2023-04-28T10:57:15;100743.19;;;13.66;100.00
4972;BME280;2501;51.214;6.768;2023-04-28T10:59:46;100748.44;;;13.66;100.00
4972;BME280;2501;51.214;6.768;2023-04-28T11:05:18;100739.81;;;13.41;100.00
4972;BME280;2501;51.214;6.768;2023-04-28T11:11:13;100737.91;;;13.68;100.00
4972;BME280;2501;51.214;6.768;2023-04-28T11:13:42;100734.38;;;13.67;100.00
4972;BME280;2501;51.214;6.768;2023-04-28T11:16:13;100735.34;;;13.54;100.00
4972;BME280;2501;51.214;6.768;2023-04-28T11:19:00;100737.81;;;13.78;100.00
4972;BME280;2501;51.214;6.768;2023-04-28T11:21:34;100738.69;;;13.80;100.00
4972;BME280;2501;51.214;6.768;2023-04-28T11:24:08;100731.66;;;13.78;100.00
4972;BME280;2501;51.214;6.768;2023-04-28T11:26:38;100726.31;;;13.87;100.00
4972;BME280;2501;51.214;6.768;2023-04-28T11:29:06;100728.78;;;14.05;100.00
4972;BME280;2501;51.214;6.768;2023-04-28T11:31:36;100726.00;;;14.20;100.00
4972;BME280;2501;51.214;6.768;2023-04-28T11:34:06;100721.97;;;14.73;100.00
4972;BME280;2501;51.214;6.768;2023-04-28T11:36:39;100717.44;;;14.86;100.00
4972;BME280;2501;51.214;6.768;2023-04-28T11:39:09;100718.84;;;15.14;100.00
4972;BME280;2501;51.214;6.768;2023-04-28T11:41:39;100705.28;;;15.40;100.00
4972;BME280;2501;51.214;6.768;2023-04-28T11:44:10;100710.91;;;16.76;99.34
4972;BME280;2501;51.214;6.768;2023-04-28T11:46:45;100698.50;;;18.29;86.96
4972;BME280;2501;51.214;6.768;2023-04-28T11:49:16;100694.63;;;17.72;81.81
4972;BME280;2501;51.214;6.768;2023-04-28T11:51:48;100698.25;;;18.38;78.34
4972;BME280;2501;51.214;6.768;2023-04-28T11:54:20;100698.84;;;17.81;82.01
4972;BME280;2501;51.214;6.768;2023-04-28T11:56:50;100715.31;;;16.77;84.92
4972;BME280;2501;51.214;6.768;2023-04-28T11:59:23;100707.66;;;16.60;88.09
4972;BME280;2501;51.214;6.768;2023-04-28T12:01:53;100709.88;;;16.83;89.00
4972;BME280;2501;51.214;6.768;2023-04-28T12:04:27;100705.09;;;17.00;87.59
4972;BME280;2501;51.214;6.768;2023-04-28T12:07:03;100710.19;;;16.67;87.66
4972;BME280;2501;51.214;6.768;2023-04-28T12:09:35;100701.28;;;17.13;87.74
4972;BME280;2501;51.214;6.768;2023-04-28T12:12:05;100704.03;;;17.49;84.32
4972;BME280;2501;51.214;6.768;2023-04-28T12:14:52;100698.13;;;16.96;85.10
4972;BME280;2501;51.214;6.768;2023-04-28T12:17:25;100698.84;;;17.43;83.71
4972;BME280;2501;51.214;6.768;2023-04-28T12:19:54;100707.63;;;17.46;82.65
4972;BME280;2501;51.214;6.768;2023-04-28T12:22:26;100696.22;;;17.41;82.52
4972;BME280;2501;51.214;6.768;2023-04-28T12:25:05;100689.84;;;18.21;79.71
4972;BME280;2501;51.214;6.768;2023-04-28T12:27:34;100689.28;;;17.74;79.12
4972;BME280;2501;51.214;6.768;2023-04-28T12:30:04;100688.38;;;17.36;81.32
4972;BME280;2501;51.214;6.768;2023-04-28T12:32:51;100695.13;;;17.50;82.13
4972;BME280;2501;51.214;6.768;2023-04-28T12:35:20;100685.63;;;17.80;81.27
4972;BME280;2501;51.214;6.768;2023-04-28T12:37:52;100686.28;;;17.51;81.84
4972;BME280;2501;51.214;6.768;2023-04-28T12:40:21;100695.78;;;17.22;84.62
4972;BME280;2501;51.214;6.768;2023-04-28T12:42:50;100694.81;;;17.26;84.75
4972;BME280;2501;51.214;6.768;2023-04-28T12:45:19;100693.97;;;17.24;85.52
4972;BME280;2501;51.214;6.768;2023-04-28T12:47:47;100693.06;;;16.84;84.85
4972;BME280;2501;51.214;6.768;2023-04-28T12:50:16;100693.47;;;17.46;84.38
4972;BME280;2501;51.214;6.768;2023-04-28T12:52:44;100687.13;;;17.53;82.76
4972;BME280;2501;51.214;6.768;2023-04-28T12:55:16;100674.81;;;17.87;81.05
4972;BME280;2501;51.214;6.768;2023-04-28T12:57:44;100676.44;;;17.56;81.10
4972;BME280;2501;51.214;6.768;2023-04-28T13:00:13;100679.88;;;17.61;83.92
4972;BME280;2501;51.214;6.768;2023-04-28T13:02:45;100670.59;;;18.47;78.53
4972;BME280;2501;51.214;6.768;2023-04-28T13:05:14;100668.44;;;18.28;78.46
4972;BME280;2501;51.214;6.768;2023-04-28T13:07:44;100669.50;;;19.14;74.98
4972;BME280;2501;51.214;6.768;2023-04-28T13:10:16;100656.91;;;18.29;74.18
4972;BME280;2501;51.214;6.768;2023-04-28T13:12:45;100654.38;;;19.16;72.13
4972;BME280;2501;51.214;6.768;2023-04-28T13:15:14;100645.66;;;18.83;73.85
4972;BME280;2501;51.214;6.768;2023-04-28T13:17:43;100653.13;;;19.28;71.20
4972;BME280;2501;51.214;6.768;2023-04-28T13:20:11;100643.88;;;18.84;72.45
4972;BME280;2501;51.214;6.768;2023-04-28T13:22:40;100650.59;;;18.66;72.58
4972;BME280;2501;51.214;6.768;2023-04-28T13:25:09;100641.53;;;18.71;74.44
4972;BME280;2501;51.214;6.768;2023-04-28T13:27:40;100644.88;;;18.16;76.23
4972;BME280;2501;51.214;6.768;2023-04-28T13:30:09;100641.38;;;19.63;73.30
4972;BME280;2501;51.214;6.768;2023-04-28T13:32:38;100629.13;;;20.10;67.73
4972;BME280;2501;51.214;6.768;2023-04-28T13:35:07;100613.19;;;22.70;61.85
4972;BME280;2501;51.214;6.768;2023-04-28T13:37:36;100620.91;;;21.34;61.03
4972;BME280;2501;51.214;6.768;2023-04-28T13:40:10;100615.09;;;21.46;59.41
4972;BME280;2501;51.214;6.768;2023-04-28T13:42:42;100615.53;;;19.93;65.47
4972;BME280;2501;51.214;6.768;2023-04-28T13:45:11;100617.69;;;18.99;70.22
4972;BME280;2501;51.214;6.768;2023-04-28T13:47:39;100610.72;;;18.95;71.25
4972;BME280;2501;51.214;6.768;2023-04-28T13:50:08;100615.44;;;19.41;70.35
4972;BME280;2501;51.214;6.768;2023-04-28T13:52:37;100615.50;;;18.22;73.86
4972;BME280;2501;51.214;6.768;2023-04-28T13:55:06;100626.84;;;18.60;74.33
4972;BME280;2501;51.214;6.768;2023-04-28T13:57:35;100627.53;;;18.96;72.36